sensor_id;sensor_type;location;lat;lon;timestamp;temperature;humidity
61979;DHT22;47938;48.176;16.414;2022-12-07T00:01:16;5.60;81.50
61979;DHT22;47938;48.176;16.414;2022-12-07T00:03:44;5.60;81.70
61979;DHT22;47938;48.176;16.414;2022-12-07T00:06:11;5.60;81.50
61979;DHT22;47938;48.176;16.414;2022-12-07T00:08:37;5.60;81.90
61979;DHT22;47938;48.176;16.414;2022-12-07T00:11:08;5.60;81.70
61979;DHT22;47938;48.176;16.414;2022-12-07T00:13:35;5.60;82.00
61979;DHT22;47938;48.176;16.414;2022-12-07T00:16:06;5.60;81.70
61979;DHT22;47938;48.176;16.414;2022-12-07T00:18:32;5.60;81.80
61979;DHT22;47938;48.176;16.414;2022-12-07T00:21:05;5.60;81.30
61979;DHT22;47938;48.176;16.414;2022-12-07T00:23:32;5.50;81.90
61979;DHT22;47938;48.176;16.414;2022-12-07T00:28:34;5.50;82.80
61979;DHT22;47938;48.176;16.414;2022-12-07T00:31:02;5.60;81.60
61979;DHT22;47938;48.176;16.414;2022-12-07T00:33:28;5.60;83.00
61979;DHT22;47938;48.176;16.414;2022-12-07T00:35:57;5.60;81.60
61979;DHT22;47938;48.176;16.414;2022-12-07T00:38:23;5.50;82.00
61979;DHT22;47938;48.176;16.414;2022-12-07T00:40:56;5.50;82.20
61979;DHT22;47938;48.176;16.414;2022-12-07T00:43:22;5.50;82.50
61979;DHT22;47938;48.176;16.414;2022-12-07T00:45:48;5.50;83.20
61979;DHT22;47938;48.176;16.414;2022-12-07T00:48:13;5.50;83.80
61979;DHT22;47938;48.176;16.414;2022-12-07T00:50:39;5.50;84.10
61979;DHT22;47938;48.176;16.414;2022-12-07T00:53:04;5.40;84.40
61979;DHT22;47938;48.176;16.414;2022-12-07T00:55:33;5.50;84.00
61979;DHT22;47938;48.176;16.414;2022-12-07T00:57:59;5.40;84.60
61979;DHT22;47938;48.176;16.414;2022-12-07T01:00:25;5.40;85.00
61979;DHT22;47938;48.176;16.414;2022-12-07T01:02:50;5.40;85.10
61979;DHT22;47938;48.176;16.414;2022-12-07T01:05:16;5.40;85.30
61979;DHT22;47938;48.176;16.414;2022-12-07T01:07:41;5.40;85.60
61979;DHT22;47938;48.176;16.414;2022-12-07T01:10:07;5.40;86.00
61979;DHT22;47938;48.176;16.414;2022-12-07T01:12:33;5.50;85.90
61979;DHT22;47938;48.176;16.414;2022-12-07T01:14:59;5.50;86.00
61979;DHT22;47938;48.176;16.414;2022-12-07T01:17:24;5.40;86.70
61979;DHT22;47938;48.176;16.414;2022-12-07T01:19:50;5.40;87.30
61979;DHT22;47938;48.176;16.414;2022-12-07T01:22:15;5.40;88.50
61979;DHT22;47938;48.176;16.414;2022-12-07T01:24:41;5.40;88.10
61979;DHT22;47938;48.176;16.414;2022-12-07T01:27:07;5.30;88.40
61979;DHT22;47938;48.176;16.414;2022-12-07T01:29:32;5.30;88.20
61979;DHT22;47938;48.176;16.414;2022-12-07T01:31:58;5.30;89.00
61979;DHT22;47938;48.176;16.414;2022-12-07T01:34:23;5.30;88.80
61979;DHT22;47938;48.176;16.414;2022-12-07T01:36:49;5.20;89.40
61979;DHT22;47938;48.176;16.414;2022-12-07T01:39:14;5.20;89.70
61979;DHT22;47938;48.176;16.414;2022-12-07T01:41:41;5.20;90.00
61979;DHT22;47938;48.176;16.414;2022-12-07T01:44:22;5.20;89.90
61979;DHT22;47938;48.176;16.414;2022-12-07T01:46:51;5.20;90.20
61979;DHT22;47938;48.176;16.414;2022-12-07T01:51:48;5.20;90.40
61979;DHT22;47938;48.176;16.414;2022-12-07T01:54:15;5.30;90.50
61979;DHT22;47938;48.176;16.414;2022-12-07T01:56:44;5.30;90.40
61979;DHT22;47938;48.176;16.414;2022-12-07T01:59:11;5.30;90.70
61979;DHT22;47938;48.176;16.414;2022-12-07T02:01:36;5.20;90.80
61979;DHT22;47938;48.176;16.414;2022-12-07T02:04:02;5.30;90.90
61979;DHT22;47938;48.176;16.414;2022-12-07T02:06:29;5.30;90.70
61979;DHT22;47938;48.176;16.414;2022-12-07T02:08:55;5.30;90.70
61979;DHT22;47938;48.176;16.414;2022-12-07T02:11:21;5.40;90.40
61979;DHT22;47938;48.176;16.414;2022-12-07T02:13:47;5.30;90.50
61979;DHT22;47938;48.176;16.414;2022-12-07T02:21:36;5.20;91.10
61979;DHT22;47938;48.176;16.414;2022-12-07T02:32:58;5.30;91.00
61979;DHT22;47938;48.176;16.414;2022-12-07T02:43:18;5.30;90.60
61979;DHT22;47938;48.176;16.414;2022-12-07T02:45:45;5.30;90.80
61979;DHT22;47938;48.176;16.414;2022-12-07T02:48:14;5.30;91.30
61979;DHT22;47938;48.176;16.414;2022-12-07T02:50:48;5.30;91.30
61979;DHT22;47938;48.176;16.414;2022-12-07T02:53:33;5.30;90.90
61979;DHT22;47938;48.176;16.414;2022-12-07T02:59:04;5.30;91.10
61979;DHT22;47938;48.176;16.414;2022-12-07T03:12:24;5.30;91.40
61979;DHT22;47938;48.176;16.414;2022-12-07T03:15:16;5.30;91.50
61979;DHT22;47938;48.176;16.414;2022-12-07T03:17:44;5.30;91.70
61979;DHT22;47938;48.176;16.414;2022-12-07T03:20:13;5.30;91.40
61979;DHT22;47938;48.176;16.414;2022-12-07T03:22:40;5.30;91.80
61979;DHT22;47938;48.176;16.414;2022-12-07T03:25:11;5.30;91.10
61979;DHT22;47938;48.176;16.414;2022-12-07T03:27:58;5.30;91.20
61979;DHT22;47938;48.176;16.414;2022-12-07T03:30:34;5.30;91.00
61979;DHT22;47938;48.176;16.414;2022-12-07T03:33:18;5.30;91.60
61979;DHT22;47938;48.176;16.414;2022-12-07T03:36:01;5.30;91.50
61979;DHT22;47938;48.176;16.414;2022-12-07T03:38:49;5.30;91.50
61979;DHT22;47938;48.176;16.414;2022-12-07T03:41:28;5.20;92.10
61979;DHT22;47938;48.176;16.414;2022-12-07T03:43:55;5.20;92.30
61979;DHT22;47938;48.176;16.414;2022-12-07T03:49:24;5.20;92.30
61979;DHT22;47938;48.176;16.414;2022-12-07T03:51:56;5.20;92.30
61979;DHT22;47938;48.176;16.414;2022-12-07T03:54:39;5.20;91.90
61979;DHT22;47938;48.176;16.414;2022-12-07T03:57:08;5.20;92.10
61979;DHT22;47938;48.176;16.414;2022-12-07T03:59:34;5.20;92.00
61979;DHT22;47938;48.176;16.414;2022-12-07T04:02:06;5.10;92.10
61979;DHT22;47938;48.176;16.414;2022-12-07T04:04:33;5.20;92.00
61979;DHT22;47938;48.176;16.414;2022-12-07T04:06:59;5.20;92.10
61979;DHT22;47938;48.176;16.414;2022-12-07T04:09:25;5.10;92.00
61979;DHT22;47938;48.176;16.414;2022-12-07T04:11:51;5.10;92.10
61979;DHT22;47938;48.176;16.414;2022-12-07T04:14:17;5.20;92.00
61979;DHT22;47938;48.176;16.414;2022-12-07T04:16:42;5.20;91.70
61979;DHT22;47938;48.176;16.414;2022-12-07T04:19:08;5.20;91.40
61979;DHT22;47938;48.176;16.414;2022-12-07T04:21:33;5.20;91.70
61979;DHT22;47938;48.176;16.414;2022-12-07T04:23:59;5.10;91.70
61979;DHT22;47938;48.176;16.414;2022-12-07T04:26:25;5.10;91.90
61979;DHT22;47938;48.176;16.414;2022-12-07T04:28:50;5.10;92.20
61979;DHT22;47938;48.176;16.414;2022-12-07T04:31:16;5.20;91.70
61979;DHT22;47938;48.176;16.414;2022-12-07T04:33:41;5.10;92.10
61979;DHT22;47938;48.176;16.414;2022-12-07T04:36:07;5.10;92.00
61979;DHT22;47938;48.176;16.414;2022-12-07T04:38:33;5.10;92.20
61979;DHT22;47938;48.176;16.414;2022-12-07T04:41:04;5.20;91.90
61979;DHT22;47938;48.176;16.414;2022-12-07T04:43:30;5.20;91.90
61979;DHT22;47938;48.176;16.414;2022-12-07T04:45:56;5.20;92.10
61979;DHT22;47938;48.176;16.414;2022-12-07T04:48:21;5.20;91.90
61979;DHT22;47938;48.176;16.414;2022-12-07T04:50:48;5.20;91.90
61979;DHT22;47938;48.176;16.414;2022-12-07T04:53:13;5.20;91.60
61979;DHT22;47938;48.176;16.414;2022-12-07T04:55:39;5.20;91.50
61979;DHT22;47938;48.176;16.414;2022-12-07T04:58:05;5.20;91.30
61979;DHT22;47938;48.176;16.414;2022-12-07T05:00:30;5.20;91.30
61979;DHT22;47938;48.176;16.414;2022-12-07T05:02:56;5.20;91.00
61979;DHT22;47938;48.176;16.414;2022-12-07T05:05:21;5.20;91.00
61979;DHT22;47938;48.176;16.414;2022-12-07T05:07:47;5.20;91.00
61979;DHT22;47938;48.176;16.414;2022-12-07T05:10:12;5.20;91.00
61979;DHT22;47938;48.176;16.414;2022-12-07T05:12:38;5.20;91.00
61979;DHT22;47938;48.176;16.414;2022-12-07T05:15:04;5.20;90.90
61979;DHT22;47938;48.176;16.414;2022-12-07T05:17:30;5.20;91.10
61979;DHT22;47938;48.176;16.414;2022-12-07T05:19:55;5.20;90.80
61979;DHT22;47938;48.176;16.414;2022-12-07T05:22:21;5.20;90.40
61979;DHT22;47938;48.176;16.414;2022-12-07T05:24:47;5.20;90.10
61979;DHT22;47938;48.176;16.414;2022-12-07T05:27:12;5.20;90.10
61979;DHT22;47938;48.176;16.414;2022-12-07T05:29:38;5.30;90.20
61979;DHT22;47938;48.176;16.414;2022-12-07T05:32:03;5.20;90.40
61979;DHT22;47938;48.176;16.414;2022-12-07T05:34:29;5.20;90.30
61979;DHT22;47938;48.176;16.414;2022-12-07T05:36:55;5.20;90.00
61979;DHT22;47938;48.176;16.414;2022-12-07T05:39:20;5.20;89.50
61979;DHT22;47938;48.176;16.414;2022-12-07T05:41:46;5.30;88.90
61979;DHT22;47938;48.176;16.414;2022-12-07T05:44:12;5.30;88.70
61979;DHT22;47938;48.176;16.414;2022-12-07T05:46:37;5.30;87.60
61979;DHT22;47938;48.176;16.414;2022-12-07T05:49:03;5.30;87.20
61979;DHT22;47938;48.176;16.414;2022-12-07T05:51:29;5.30;87.30
61979;DHT22;47938;48.176;16.414;2022-12-07T05:53:54;5.30;87.30
61979;DHT22;47938;48.176;16.414;2022-12-07T05:56:20;5.40;86.40
61979;DHT22;47938;48.176;16.414;2022-12-07T05:58:45;5.40;85.60
61979;DHT22;47938;48.176;16.414;2022-12-07T06:01:11;5.40;85.60
61979;DHT22;47938;48.176;16.414;2022-12-07T06:03:37;5.40;85.40
61979;DHT22;47938;48.176;16.414;2022-12-07T06:06:02;5.40;85.40
61979;DHT22;47938;48.176;16.414;2022-12-07T06:08:28;5.40;85.50
61979;DHT22;47938;48.176;16.414;2022-12-07T06:10:53;5.40;85.90
61979;DHT22;47938;48.176;16.414;2022-12-07T06:13:19;5.40;85.20
61979;DHT22;47938;48.176;16.414;2022-12-07T06:15:45;5.40;84.50
61979;DHT22;47938;48.176;16.414;2022-12-07T06:18:10;5.40;84.00
61979;DHT22;47938;48.176;16.414;2022-12-07T06:20:36;5.40;84.00
61979;DHT22;47938;48.176;16.414;2022-12-07T06:23:01;5.40;84.10
61979;DHT22;47938;48.176;16.414;2022-12-07T06:25:27;5.40;84.30
61979;DHT22;47938;48.176;16.414;2022-12-07T06:27:52;5.40;84.70
61979;DHT22;47938;48.176;16.414;2022-12-07T06:30:18;5.40;85.00
61979;DHT22;47938;48.176;16.414;2022-12-07T06:32:44;5.40;85.00
61979;DHT22;47938;48.176;16.414;2022-12-07T06:35:09;5.40;85.20
61979;DHT22;47938;48.176;16.414;2022-12-07T06:37:35;5.40;84.30
61979;DHT22;47938;48.176;16.414;2022-12-07T06:40:00;5.40;84.20
61979;DHT22;47938;48.176;16.414;2022-12-07T06:42:26;5.40;84.90
61979;DHT22;47938;48.176;16.414;2022-12-07T06:44:52;5.50;84.60
61979;DHT22;47938;48.176;16.414;2022-12-07T06:47:17;5.50;83.80
61979;DHT22;47938;48.176;16.414;2022-12-07T06:49:43;5.50;86.70
61979;DHT22;47938;48.176;16.414;2022-12-07T06:52:08;5.50;84.30
61979;DHT22;47938;48.176;16.414;2022-12-07T06:54:34;5.50;83.90
61979;DHT22;47938;48.176;16.414;2022-12-07T06:56:59;5.50;83.60
61979;DHT22;47938;48.176;16.414;2022-12-07T06:59:26;5.60;85.30
61979;DHT22;47938;48.176;16.414;2022-12-07T07:01:51;5.50;83.20
61979;DHT22;47938;48.176;16.414;2022-12-07T07:04:17;5.60;82.90
61979;DHT22;47938;48.176;16.414;2022-12-07T07:06:43;5.60;82.90
61979;DHT22;47938;48.176;16.414;2022-12-07T07:09:08;5.60;82.90
61979;DHT22;47938;48.176;16.414;2022-12-07T07:11:34;5.60;82.20
61979;DHT22;47938;48.176;16.414;2022-12-07T07:13:59;5.60;81.50
61979;DHT22;47938;48.176;16.414;2022-12-07T07:16:25;5.60;81.10
61979;DHT22;47938;48.176;16.414;2022-12-07T07:18:50;5.60;81.40
61979;DHT22;47938;48.176;16.414;2022-12-07T07:21:16;5.60;82.90
61979;DHT22;47938;48.176;16.414;2022-12-07T07:23:42;5.60;80.20
61979;DHT22;47938;48.176;16.414;2022-12-07T07:26:07;5.60;79.90
61979;DHT22;47938;48.176;16.414;2022-12-07T07:28:33;5.70;80.00
61979;DHT22;47938;48.176;16.414;2022-12-07T07:30:58;5.70;80.60
61979;DHT22;47938;48.176;16.414;2022-12-07T07:33:24;5.80;80.00
61979;DHT22;47938;48.176;16.414;2022-12-07T07:35:50;5.80;79.60
61979;DHT22;47938;48.176;16.414;2022-12-07T07:38:15;5.80;78.80
61979;DHT22;47938;48.176;16.414;2022-12-07T07:40:41;5.80;78.60
61979;DHT22;47938;48.176;16.414;2022-12-07T07:43:06;5.80;78.90
61979;DHT22;47938;48.176;16.414;2022-12-07T07:45:32;5.80;78.80
61979;DHT22;47938;48.176;16.414;2022-12-07T07:47:58;5.80;78.10
61979;DHT22;47938;48.176;16.414;2022-12-07T07:50:23;5.80;77.70
61979;DHT22;47938;48.176;16.414;2022-12-07T07:52:49;5.80;77.30
61979;DHT22;47938;48.176;16.414;2022-12-07T07:55:16;5.90;77.30
61979;DHT22;47938;48.176;16.414;2022-12-07T07:57:42;5.90;76.90
61979;DHT22;47938;48.176;16.414;2022-12-07T08:00:11;5.90;76.80
61979;DHT22;47938;48.176;16.414;2022-12-07T08:02:37;6.00;76.90
61979;DHT22;47938;48.176;16.414;2022-12-07T08:05:02;6.00;76.30
61979;DHT22;47938;48.176;16.414;2022-12-07T08:07:28;6.00;76.90
61979;DHT22;47938;48.176;16.414;2022-12-07T08:09:54;6.00;75.70
61979;DHT22;47938;48.176;16.414;2022-12-07T08:12:20;6.00;75.90
61979;DHT22;47938;48.176;16.414;2022-12-07T08:14:45;6.10;76.00
61979;DHT22;47938;48.176;16.414;2022-12-07T08:17:11;6.10;75.60
61979;DHT22;47938;48.176;16.414;2022-12-07T08:19:36;6.10;76.70
61979;DHT22;47938;48.176;16.414;2022-12-07T08:22:02;6.10;76.10
61979;DHT22;47938;48.176;16.414;2022-12-07T08:24:28;6.10;74.70
61979;DHT22;47938;48.176;16.414;2022-12-07T08:26:53;6.10;75.30
61979;DHT22;47938;48.176;16.414;2022-12-07T08:29:19;6.10;75.60
61979;DHT22;47938;48.176;16.414;2022-12-07T08:31:45;6.10;75.80
61979;DHT22;47938;48.176;16.414;2022-12-07T08:34:11;6.20;75.40
61979;DHT22;47938;48.176;16.414;2022-12-07T08:36:37;6.30;74.90
61979;DHT22;47938;48.176;16.414;2022-12-07T08:39:03;6.40;74.50
61979;DHT22;47938;48.176;16.414;2022-12-07T08:41:29;6.50;73.50
61979;DHT22;47938;48.176;16.414;2022-12-07T08:43:55;6.50;73.40
61979;DHT22;47938;48.176;16.414;2022-12-07T08:49:01;6.50;72.50
61979;DHT22;47938;48.176;16.414;2022-12-07T08:51:27;6.50;73.00
61979;DHT22;47938;48.176;16.414;2022-12-07T08:53:54;6.50;71.90
61979;DHT22;47938;48.176;16.414;2022-12-07T08:56:21;6.50;72.30
61979;DHT22;47938;48.176;16.414;2022-12-07T08:58:48;6.50;70.30
61979;DHT22;47938;48.176;16.414;2022-12-07T09:01:13;6.60;69.40
61979;DHT22;47938;48.176;16.414;2022-12-07T09:03:39;6.60;68.80
61979;DHT22;47938;48.176;16.414;2022-12-07T09:06:05;6.60;68.80
61979;DHT22;47938;48.176;16.414;2022-12-07T09:08:42;6.60;68.70
61979;DHT22;47938;48.176;16.414;2022-12-07T09:11:09;6.60;68.50
61979;DHT22;47938;48.176;16.414;2022-12-07T09:13:34;6.60;68.30
61979;DHT22;47938;48.176;16.414;2022-12-07T09:16:00;6.70;68.10
61979;DHT22;47938;48.176;16.414;2022-12-07T09:18:25;6.70;66.90
61979;DHT22;47938;48.176;16.414;2022-12-07T09:20:51;6.70;67.20
61979;DHT22;47938;48.176;16.414;2022-12-07T09:23:17;6.60;66.60
61979;DHT22;47938;48.176;16.414;2022-12-07T09:25:42;6.70;66.10
61979;DHT22;47938;48.176;16.414;2022-12-07T09:28:08;6.50;66.30
61979;DHT22;47938;48.176;16.414;2022-12-07T09:30:34;6.60;66.30
61979;DHT22;47938;48.176;16.414;2022-12-07T09:33:00;6.50;66.20
61979;DHT22;47938;48.176;16.414;2022-12-07T09:35:25;6.50;66.30
61979;DHT22;47938;48.176;16.414;2022-12-07T09:37:51;6.50;66.40
61979;DHT22;47938;48.176;16.414;2022-12-07T09:40:18;6.50;66.00
61979;DHT22;47938;48.176;16.414;2022-12-07T09:42:48;6.60;66.40
61979;DHT22;47938;48.176;16.414;2022-12-07T09:45:19;6.60;65.90
61979;DHT22;47938;48.176;16.414;2022-12-07T09:47:45;6.90;65.40
61979;DHT22;47938;48.176;16.414;2022-12-07T09:50:17;6.90;65.00
61979;DHT22;47938;48.176;16.414;2022-12-07T09:52:45;7.10;64.70
61979;DHT22;47938;48.176;16.414;2022-12-07T09:55:14;7.10;64.60
61979;DHT22;47938;48.176;16.414;2022-12-07T09:57:41;7.20;63.50
61979;DHT22;47938;48.176;16.414;2022-12-07T10:00:16;7.30;63.30
61979;DHT22;47938;48.176;16.414;2022-12-07T10:02:48;7.20;63.30
61979;DHT22;47938;48.176;16.414;2022-12-07T10:05:22;7.20;63.40
61979;DHT22;47938;48.176;16.414;2022-12-07T10:07:49;7.10;63.50
61979;DHT22;47938;48.176;16.414;2022-12-07T10:10:26;7.30;62.80
61979;DHT22;47938;48.176;16.414;2022-12-07T10:15:23;7.20;62.70
61979;DHT22;47938;48.176;16.414;2022-12-07T10:17:51;7.30;62.00
61979;DHT22;47938;48.176;16.414;2022-12-07T10:20:24;7.20;62.00
61979;DHT22;47938;48.176;16.414;2022-12-07T10:23:14;7.00;62.60
61979;DHT22;47938;48.176;16.414;2022-12-07T10:25:40;7.20;62.80
61979;DHT22;47938;48.176;16.414;2022-12-07T10:28:15;7.20;62.00
61979;DHT22;47938;48.176;16.414;2022-12-07T10:30:55;7.40;60.40
61979;DHT22;47938;48.176;16.414;2022-12-07T10:33:48;7.20;60.80
61979;DHT22;47938;48.176;16.414;2022-12-07T10:36:20;7.30;59.90
61979;DHT22;47938;48.176;16.414;2022-12-07T10:39:03;7.40;59.90
61979;DHT22;47938;48.176;16.414;2022-12-07T10:41:28;7.50;59.30
61979;DHT22;47938;48.176;16.414;2022-12-07T10:43:56;7.50;58.90
61979;DHT22;47938;48.176;16.414;2022-12-07T10:55:07;7.60;58.30
61979;DHT22;47938;48.176;16.414;2022-12-07T11:11:12;7.60;59.40
61979;DHT22;47938;48.176;16.414;2022-12-07T11:14:00;7.50;59.00
61979;DHT22;47938;48.176;16.414;2022-12-07T11:16:47;7.50;59.50
61979;DHT22;47938;48.176;16.414;2022-12-07T11:19:39;7.40;59.50
61979;DHT22;47938;48.176;16.414;2022-12-07T11:38:54;7.20;60.50
61979;DHT22;47938;48.176;16.414;2022-12-07T11:41:25;7.10;60.40
61979;DHT22;47938;48.176;16.414;2022-12-07T11:47:02;6.90;60.10
61979;DHT22;47938;48.176;16.414;2022-12-07T11:52:19;6.70;58.70
61979;DHT22;47938;48.176;16.414;2022-12-07T11:54:46;6.60;58.90
61979;DHT22;47938;48.176;16.414;2022-12-07T11:57:24;6.60;59.50
61979;DHT22;47938;48.176;16.414;2022-12-07T12:00:05;6.60;59.00
61979;DHT22;47938;48.176;16.414;2022-12-07T12:02:48;6.70;59.20
61979;DHT22;47938;48.176;16.414;2022-12-07T12:05:21;6.80;59.50
61979;DHT22;47938;48.176;16.414;2022-12-07T12:07:59;6.90;58.60
61979;DHT22;47938;48.176;16.414;2022-12-07T12:21:17;6.90;59.10
61979;DHT22;47938;48.176;16.414;2022-12-07T12:23:45;7.00;60.70
61979;DHT22;47938;48.176;16.414;2022-12-07T12:26:22;7.00;59.40
61979;DHT22;47938;48.176;16.414;2022-12-07T12:31:15;7.10;58.90
61979;DHT22;47938;48.176;16.414;2022-12-07T12:44:02;6.90;59.10
61979;DHT22;47938;48.176;16.414;2022-12-07T12:51:42;6.90;59.40
61979;DHT22;47938;48.176;16.414;2022-12-07T12:59:31;6.90;58.90
61979;DHT22;47938;48.176;16.414;2022-12-07T13:02:36;6.90;59.00
61979;DHT22;47938;48.176;16.414;2022-12-07T13:18:01;6.70;59.00
61979;DHT22;47938;48.176;16.414;2022-12-07T13:20:46;6.50;59.40
61979;DHT22;47938;48.176;16.414;2022-12-07T13:23:14;6.50;59.90
61979;DHT22;47938;48.176;16.414;2022-12-07T13:28:35;6.60;59.70
61979;DHT22;47938;48.176;16.414;2022-12-07T13:31:09;6.60;59.80
61979;DHT22;47938;48.176;16.414;2022-12-07T13:33:36;6.60;59.70
61979;DHT22;47938;48.176;16.414;2022-12-07T13:36:02;6.60;60.00
61979;DHT22;47938;48.176;16.414;2022-12-07T13:38:35;6.50;59.60
61979;DHT22;47938;48.176;16.414;2022-12-07T13:41:14;6.50;59.70
61979;DHT22;47938;48.176;16.414;2022-12-07T13:46:15;6.50;60.10
61979;DHT22;47938;48.176;16.414;2022-12-07T13:48:49;6.40;60.50
61979;DHT22;47938;48.176;16.414;2022-12-07T13:51:25;6.50;60.60
61979;DHT22;47938;48.176;16.414;2022-12-07T13:53:56;6.50;60.10
61979;DHT22;47938;48.176;16.414;2022-12-07T13:56:34;6.50;60.10
61979;DHT22;47938;48.176;16.414;2022-12-07T13:59:01;6.50;60.30
61979;DHT22;47938;48.176;16.414;2022-12-07T14:01:27;6.40;60.80
61979;DHT22;47938;48.176;16.414;2022-12-07T14:03:53;6.40;60.60
61979;DHT22;47938;48.176;16.414;2022-12-07T14:06:26;6.40;60.90
61979;DHT22;47938;48.176;16.414;2022-12-07T14:09:18;6.30;61.00
61979;DHT22;47938;48.176;16.414;2022-12-07T14:11:46;6.30;61.00
61979;DHT22;47938;48.176;16.414;2022-12-07T14:14:22;6.40;61.00
61979;DHT22;47938;48.176;16.414;2022-12-07T14:17:21;6.30;61.10
61979;DHT22;47938;48.176;16.414;2022-12-07T14:19:50;6.20;61.60
61979;DHT22;47938;48.176;16.414;2022-12-07T14:22:28;6.20;61.30
61979;DHT22;47938;48.176;16.414;2022-12-07T14:25:19;6.10;61.60
61979;DHT22;47938;48.176;16.414;2022-12-07T14:27:57;6.00;62.20
61979;DHT22;47938;48.176;16.414;2022-12-07T14:30:25;6.00;62.60
61979;DHT22;47938;48.176;16.414;2022-12-07T14:33:02;5.90;63.10
61979;DHT22;47938;48.176;16.414;2022-12-07T14:35:29;5.90;63.20
61979;DHT22;47938;48.176;16.414;2022-12-07T14:37:55;5.90;63.30
61979;DHT22;47938;48.176;16.414;2022-12-07T14:40:26;6.00;63.60
61979;DHT22;47938;48.176;16.414;2022-12-07T14:42:56;5.90;64.20
61979;DHT22;47938;48.176;16.414;2022-12-07T14:45:23;5.90;64.00
61979;DHT22;47938;48.176;16.414;2022-12-07T14:47:48;5.90;64.40
61979;DHT22;47938;48.176;16.414;2022-12-07T14:50:16;5.90;64.00
61979;DHT22;47938;48.176;16.414;2022-12-07T14:52:44;5.90;64.30
61979;DHT22;47938;48.176;16.414;2022-12-07T14:55:26;5.90;64.70
61979;DHT22;47938;48.176;16.414;2022-12-07T14:57:52;5.80;65.00
61979;DHT22;47938;48.176;16.414;2022-12-07T15:00:19;5.70;65.60
61979;DHT22;47938;48.176;16.414;2022-12-07T15:02:46;5.70;66.10
61979;DHT22;47938;48.176;16.414;2022-12-07T15:05:13;5.60;66.30
61979;DHT22;47938;48.176;16.414;2022-12-07T15:07:39;5.60;66.10
61979;DHT22;47938;48.176;16.414;2022-12-07T15:10:06;5.60;66.00
61979;DHT22;47938;48.176;16.414;2022-12-07T15:12:32;5.60;66.20
61979;DHT22;47938;48.176;16.414;2022-12-07T15:14:57;5.60;66.30
61979;DHT22;47938;48.176;16.414;2022-12-07T15:17:23;5.60;66.40
61979;DHT22;47938;48.176;16.414;2022-12-07T15:19:49;5.60;66.30
61979;DHT22;47938;48.176;16.414;2022-12-07T15:22:14;5.70;66.20
61979;DHT22;47938;48.176;16.414;2022-12-07T15:24:40;5.70;66.40
61979;DHT22;47938;48.176;16.414;2022-12-07T15:27:05;5.70;66.30
61979;DHT22;47938;48.176;16.414;2022-12-07T15:29:31;5.70;66.30
61979;DHT22;47938;48.176;16.414;2022-12-07T15:31:57;5.70;66.50
61979;DHT22;47938;48.176;16.414;2022-12-07T15:34:26;5.70;67.60
61979;DHT22;47938;48.176;16.414;2022-12-07T15:36:52;5.70;67.20
61979;DHT22;47938;48.176;16.414;2022-12-07T15:39:18;5.70;67.00
61979;DHT22;47938;48.176;16.414;2022-12-07T15:41:44;5.70;67.50
61979;DHT22;47938;48.176;16.414;2022-12-07T15:44:12;5.70;67.20
61979;DHT22;47938;48.176;16.414;2022-12-07T15:46:39;5.70;67.80
61979;DHT22;47938;48.176;16.414;2022-12-07T15:49:17;5.70;67.50
61979;DHT22;47938;48.176;16.414;2022-12-07T15:51:44;5.70;67.60
61979;DHT22;47938;48.176;16.414;2022-12-07T15:54:28;5.70;67.50
61979;DHT22;47938;48.176;16.414;2022-12-07T15:56:55;5.60;67.90
61979;DHT22;47938;48.176;16.414;2022-12-07T15:59:21;5.60;68.40
61979;DHT22;47938;48.176;16.414;2022-12-07T16:01:47;5.60;68.60
61979;DHT22;47938;48.176;16.414;2022-12-07T16:04:12;5.50;68.70
61979;DHT22;47938;48.176;16.414;2022-12-07T16:06:38;5.50;69.00
61979;DHT22;47938;48.176;16.414;2022-12-07T16:09:04;5.50;69.10
61979;DHT22;47938;48.176;16.414;2022-12-07T16:11:30;5.50;68.90
61979;DHT22;47938;48.176;16.414;2022-12-07T16:13:56;5.50;68.70
61979;DHT22;47938;48.176;16.414;2022-12-07T16:16:21;5.50;68.70
61979;DHT22;47938;48.176;16.414;2022-12-07T16:18:47;5.40;68.50
61979;DHT22;47938;48.176;16.414;2022-12-07T16:21:14;5.40;68.80
61979;DHT22;47938;48.176;16.414;2022-12-07T16:23:40;5.40;68.60
61979;DHT22;47938;48.176;16.414;2022-12-07T16:26:13;5.40;68.10
61979;DHT22;47938;48.176;16.414;2022-12-07T16:28:39;5.30;68.10
61979;DHT22;47938;48.176;16.414;2022-12-07T16:31:13;5.30;68.40
61979;DHT22;47938;48.176;16.414;2022-12-07T16:33:41;5.30;68.30
61979;DHT22;47938;48.176;16.414;2022-12-07T16:36:08;5.30;68.10
61979;DHT22;47938;48.176;16.414;2022-12-07T16:38:35;5.20;68.10
61979;DHT22;47938;48.176;16.414;2022-12-07T16:41:00;5.20;68.50
61979;DHT22;47938;48.176;16.414;2022-12-07T16:43:26;5.20;68.80
61979;DHT22;47938;48.176;16.414;2022-12-07T16:45:52;5.10;68.80
61979;DHT22;47938;48.176;16.414;2022-12-07T16:48:18;5.10;69.10
61979;DHT22;47938;48.176;16.414;2022-12-07T16:50:44;5.00;69.10
61979;DHT22;47938;48.176;16.414;2022-12-07T16:53:11;5.10;69.40
61979;DHT22;47938;48.176;16.414;2022-12-07T16:55:42;5.10;69.30
61979;DHT22;47938;48.176;16.414;2022-12-07T16:58:08;5.00;70.40
61979;DHT22;47938;48.176;16.414;2022-12-07T17:00:34;5.10;69.10
61979;DHT22;47938;48.176;16.414;2022-12-07T17:03:01;5.10;69.20
61979;DHT22;47938;48.176;16.414;2022-12-07T17:05:26;5.10;70.50
61979;DHT22;47938;48.176;16.414;2022-12-07T17:07:52;5.10;70.30
61979;DHT22;47938;48.176;16.414;2022-12-07T17:10:18;5.00;69.30
61979;DHT22;47938;48.176;16.414;2022-12-07T17:12:43;5.00;69.30
61979;DHT22;47938;48.176;16.414;2022-12-07T17:15:10;5.00;69.10
61979;DHT22;47938;48.176;16.414;2022-12-07T17:17:35;5.00;69.20
61979;DHT22;47938;48.176;16.414;2022-12-07T17:20:01;5.00;69.10
61979;DHT22;47938;48.176;16.414;2022-12-07T17:22:27;5.00;69.20
61979;DHT22;47938;48.176;16.414;2022-12-07T17:24:52;4.90;69.10
61979;DHT22;47938;48.176;16.414;2022-12-07T17:27:18;5.00;69.60
61979;DHT22;47938;48.176;16.414;2022-12-07T17:29:44;4.90;69.50
61979;DHT22;47938;48.176;16.414;2022-12-07T17:32:09;4.90;69.60
61979;DHT22;47938;48.176;16.414;2022-12-07T17:34:35;4.90;69.50
61979;DHT22;47938;48.176;16.414;2022-12-07T17:37:00;4.80;69.40
61979;DHT22;47938;48.176;16.414;2022-12-07T17:39:26;4.80;70.00
61979;DHT22;47938;48.176;16.414;2022-12-07T17:41:52;4.80;70.20
61979;DHT22;47938;48.176;16.414;2022-12-07T17:44:18;4.80;70.50
61979;DHT22;47938;48.176;16.414;2022-12-07T17:46:45;4.80;70.90
61979;DHT22;47938;48.176;16.414;2022-12-07T17:49:11;4.80;71.00
61979;DHT22;47938;48.176;16.414;2022-12-07T17:51:37;4.80;70.30
61979;DHT22;47938;48.176;16.414;2022-12-07T17:54:03;4.80;70.60
61979;DHT22;47938;48.176;16.414;2022-12-07T17:56:29;4.80;70.70
61979;DHT22;47938;48.176;16.414;2022-12-07T17:58:54;4.80;71.70
61979;DHT22;47938;48.176;16.414;2022-12-07T18:01:20;4.80;71.00
61979;DHT22;47938;48.176;16.414;2022-12-07T18:03:46;4.80;70.80